CYEKCYUB

Guest
Details From CYEK - Arviat
To CYUB - Tuktoyaktuk
Flight Number -
Tags Decoded
Created
Modified
Stats Distance 2,571 nm / 4,762 km
Max Altitude 0 ft / 0 m
Waypoints 5
Social Downloads 0
Likes 0
Share VATSIM

Download

Looking for another format? Having issues loading an existing format? Contact us
Advertisement - Login to hide

Notes

Decoded

Route

CYEK CYBK CYCY CYVM CYUB

ID Type Via Altitude Latitude Longitude Leg Dist Tot Dist Heading (true) Name
O CYEK APT - 0 ft / 0 m 61.09886˚ -94.07665˚ - 0 nm - -
CYBK APT - 0 ft / 0 m 64.30444˚ -96.08195˚ 200 nm 200 nm 345° / 343° BAKER LAKE
CYCY APT - 0 ft / 0 m 70.48139˚ -68.52111˚ 727 nm 927 nm 47° / 73° -
CYVM APT - 0 ft / 0 m 67.54195˚ -64.03806˚ 201 nm 1128 nm 149° / 153° -
O CYUB APT - 0 ft / 0 m 69.43722˚ -133.04250˚ 1443 nm 2571 nm 306° / 241° -

Altitude Profile

Advertisement - Login to hide

Weather


0- 5 10 15 20 25 30 35+ Temperature / ° C

Clouds and Precipitation
Forecast for 2017-12-16 06:00 UTC. Updated 32 minutes ago

Ground ~20,000 ft ~40,000 ft Winds

CYEK

Details ICAO CYEK (YEK)
Name ARVIAT
Region Canada
Timezone America/Rankin_Inlet (UTC-6.0)
Stats Elevation 32 ft / 10 m (AMSL)
Location 61.094167° -94.070834°
Runways 1
Magnetic Variation 3.188° W

METAR

CYEK 160100Z AUTO 33008KT 9SM CLR M28/M32 A2993 RMK SLP138

Decode

TAF

TAF CYEK 152341Z 1600/1612 33008KT P6SM SKC FM160500 32008KT P6SM SCT012 BKN050 TEMPO 1605/1610 BKN012 FM161000 30008KT P6SM FEW012 RMK FCST BASED ON AUTO OBS. NXT FCST BY 160600Z

Decode

Departure Runways

ID Width Length Bearing (true) Bearing (mag) Surface Threshold Offset Overrun Length
15T 100 ft / 30 m 3,991 ft / 1,216 m 149.03° 152.22° Gravel 0 ft / 0 m 0 ft / 0 m
33T 100 ft / 30 m 3,991 ft / 1,216 m 329.05° 332.24° Gravel 0 ft / 0 m 0 ft / 0 m

CYUB

Details ICAO CYUB (YUB)
Name TUKTOYAKTUK
Region Canada
Timezone America/Yellowknife (UTC-7.0)
Stats Elevation 15 ft / 5 m (AMSL)
Location 69.433334° -133.026390°
Runways 1
Magnetic Variation 21.829° E

METAR

CYUB 160100Z 07007KT 10SM -SN BKN013 M14/M15 A2980 RMK SC7 SLP093

Decode

TAF

TAF CYUB 160038Z 1601/1606 06006KT P6SM SCT015 BKN050 TEMPO 1601/1606 3SM -SN BKN015 OVC050 RMK NXT FCST WILL BE ISSUED AT 161545Z

Decode

Destination Runways

ID Width Length Bearing (true) Bearing (mag) Surface Threshold Offset Overrun Length
09 150 ft / 46 m 5,012 ft / 1,528 m 124.50° 102.67° Gravel 200 ft / 61 m 0 ft / 0 m
27 150 ft / 46 m 5,012 ft / 1,528 m 304.53° 282.70° Gravel 200 ft / 61 m 0 ft / 0 m